Time;durP1;ratioP1;P1;durP2;ratioP2;P2;SDS_P1;SDS_P2;PMS_P1;PMS_P2;Temp;Humidity;BMP_temperature;BMP_pressure;BME280_temperature;BME280_humidity;BME280_pressure;Samples;Min_cycle;Max_cycle;Signal;HPM_P1;HPM_P2
2022/12/22 03:27:00;;;;;;;4.67;4.67;;;;;;;8.70;93.48;99888.25;5115353;28;20394;-68
2022/12/22 03:29:27;;;;;;;4.23;4.13;;;;;;;8.72;93.36;99882.81;5115045;28;20204;-68
2022/12/22 03:31:53;;;;;;;4.73;4.63;;;;;;;8.71;93.96;99878.44;5114969;28;20185;-68
2022/12/22 03:34:20;;;;;;;4.87;4.77;;;;;;;8.72;93.56;99872.97;5115097;28;20683;-68
2022/12/22 03:36:46;;;;;;;4.00;4.00;;;;;;;8.71;93.68;99865.97;5114794;28;20211;-68
2022/12/22 03:39:12;;;;;;;5.30;5.20;;;;;;;8.78;93.32;99863.63;5115130;28;20189;-68
2022/12/22 03:47:22;;;;;;;5.53;5.33;;;;;;;8.87;92.70;99854.06;5114682;28;20540;-68
2022/12/22 03:49:48;;;;;;;5.83;5.63;;;;;;;8.85;93.12;99856.84;5114646;28;20555;-68
2022/12/22 03:52:15;;;;;;;6.40;6.20;;;;;;;8.87;92.94;99849.56;5114546;28;20541;-68
2022/12/22 03:54:41;;;;;;;6.07;5.97;;;;;;;8.87;92.84;99846.91;5114833;28;20181;-68
2022/12/22 03:57:07;;;;;;;4.80;4.80;;;;;;;8.86;92.81;99842.53;5114807;28;20211;-68
2022/12/22 03:59:34;;;;;;;4.80;4.70;;;;;;;8.85;93.42;99839.97;5114420;28;20268;-68
2022/12/22 04:02:00;;;;;;;4.97;4.63;;;;;;;8.84;93.07;99830.28;5114936;28;20272;-68
2022/12/22 04:04:27;;;;;;;3.80;3.80;;;;;;;8.80;92.95;99827.00;5114646;28;20212;-68
2022/12/22 04:06:53;;;;;;;4.10;4.10;;;;;;;8.85;93.14;99834.63;5114261;28;20201;-68
2022/12/22 04:09:21;;;;;;;4.70;4.60;;;;;;;8.83;93.02;99829.41;5114261;28;20196;-68
2022/12/22 04:14:32;;;;;;;4.30;4.20;;;;;;;8.87;92.94;99832.69;5114426;28;20197;-68
2022/12/22 04:17:04;;;;;;;4.57;4.33;;;;;;;8.93;93.30;99826.84;5114085;28;20702;-68
2022/12/22 04:19:31;;;;;;;5.37;5.27;;;;;;;8.90;92.83;99825.28;5114677;28;20260;-68
2022/12/22 04:21:58;;;;;;;4.60;4.57;;;;;;;8.90;92.94;99819.94;5113961;28;20221;-68
2022/12/22 04:24:24;;;;;;;3.90;3.90;;;;;;;8.88;93.17;99816.56;5114050;28;20681;-68
2022/12/22 04:26:51;;;;;;;4.60;4.50;;;;;;;8.87;92.85;99812.19;5113935;28;20201;-68
2022/12/22 04:29:17;;;;;;;4.67;4.57;;;;;;;8.87;93.10;99820.19;5113975;28;20189;-68
2022/12/22 04:31:44;;;;;;;5.13;5.03;;;;;;;8.85;93.12;99815.94;5113893;28;20674;-68
2022/12/22 04:34:10;;;;;;;4.67;4.67;;;;;;;8.86;93.13;99822.97;5113636;28;20216;-68
2022/12/22 04:36:37;;;;;;;4.13;4.13;;;;;;;8.85;93.36;99816.78;5113799;28;20576;-68
2022/12/22 04:39:03;;;;;;;5.37;4.93;;;;;;;8.86;92.88;99810.50;5114420;28;20188;-68
2022/12/22 04:41:29;;;;;;;5.83;5.73;;;;;;;8.82;92.67;99806.38;5113778;28;20199;-68
2022/12/22 04:43:56;;;;;;;6.37;6.17;;;;;;;8.83;92.94;99805.38;5114052;28;20264;-68
2022/12/22 04:46:22;;;;;;;6.07;5.97;;;;;;;8.85;92.91;99813.28;5113678;28;20569;-68
2022/12/22 04:48:49;;;;;;;4.47;4.47;;;;;;;8.85;93.25;99800.78;5113728;28;20602;-68
2022/12/22 04:51:23;;;;;;;5.90;5.80;;;;;;;8.86;93.33;99805.16;5114007;28;20177;-68
2022/12/22 04:53:49;;;;;;;5.60;5.50;;;;;;;8.87;93.07;99806.84;5113629;28;20211;-68
2022/12/22 04:56:15;;;;;;;5.47;5.43;;;;;;;8.89;92.98;99801.41;5113593;28;20284;-68
2022/12/22 04:58:42;;;;;;;6.37;6.13;;;;;;;8.86;93.35;99805.16;5113915;28;20216;-68
2022/12/22 05:01:14;;;;;;;5.33;5.13;;;;;;;8.87;92.80;99798.00;5113853;28;20193;-68
2022/12/22 05:03:40;;;;;;;6.20;5.90;;;;;;;8.91;93.13;99797.63;5113606;28;20205;-68
2022/12/22 05:06:07;;;;;;;5.93;5.77;;;;;;;8.89;92.92;99788.03;5113504;28;20204;-68
2022/12/22 05:08:33;;;;;;;6.50;6.10;;;;;;;8.88;93.02;99789.88;5113581;28;20199;-68
2022/12/22 05:11:01;;;;;;;6.40;6.20;;;;;;;8.92;92.80;99785.13;5113781;28;20670;-68
2022/12/22 05:13:29;;;;;;;6.07;5.87;;;;;;;8.89;93.31;99788.88;5113712;28;20746;-68
2022/12/22 05:16:06;;;;;;;5.73;5.53;;;;;;;8.91;93.19;99788.78;5113459;28;20205;-68
2022/12/22 05:18:33;;;;;;;6.17;5.87;;;;;;;8.87;93.07;99787.31;5113971;28;20256;-68
2022/12/22 05:21:21;;;;;;;5.70;5.60;;;;;;;8.88;92.90;99780.97;5113616;28;20204;-68
2022/12/22 05:23:48;;;;;;;6.43;6.27;;;;;;;8.87;92.89;99784.63;5113617;28;20169;-68
2022/12/22 05:26:16;;;;;;;5.40;5.30;;;;;;;8.87;92.94;99780.16;5113271;28;20197;-68
2022/12/22 05:28:44;;;;;;;5.80;5.70;;;;;;;8.93;93.11;99778.78;5113296;28;20181;-68
2022/12/22 05:31:17;;;;;;;5.73;5.43;;;;;;;8.94;93.46;99767.16;5113303;28;20181;-68
2022/12/22 05:33:45;;;;;;;6.10;6.00;;;;;;;8.96;93.16;99775.06;5113562;28;20194;-68
2022/12/22 05:36:11;;;;;;;7.07;6.43;;;;;;;8.97;93.34;99772.25;5113468;28;20216;-68
2022/12/22 05:38:38;;;;;;;6.17;5.97;;;;;;;8.96;92.92;99775.91;5113539;28;20185;-68
2022/12/22 05:41:06;;;;;;;6.27;6.10;;;;;;;8.99;92.82;99775.63;5113235;28;20209;-68
2022/12/22 05:43:33;;;;;;;5.53;5.43;;;;;;;8.92;93.31;99774.44;5113191;28;20730;-68
2022/12/22 05:46:01;;;;;;;6.30;6.13;;;;;;;8.99;92.95;99772.97;5116424;28;20215;-68
2022/12/22 05:48:28;;;;;;;5.90;5.70;;;;;;;8.96;92.96;99783.91;5116982;28;20189;-68
2022/12/22 05:51:03;;;;;;;7.17;6.97;;;;;;;8.96;93.40;99785.75;5117529;28;20184;-68
2022/12/22 05:53:29;;;;;;;6.00;5.90;;;;;;;8.97;93.19;99790.09;5117367;28;20207;-68
2022/12/22 05:55:56;;;;;;;6.53;6.20;;;;;;;8.97;93.33;99787.41;5117263;28;20227;-68
2022/12/22 05:58:23;;;;;;;6.27;6.17;;;;;;;8.98;93.42;99784.63;5117231;28;20189;-68
2022/12/22 06:00:49;;;;;;;7.30;6.90;;;;;;;9.01;93.17;99789.72;5116743;28;20548;-68
2022/12/22 06:03:15;;;;;;;8.00;7.60;;;;;;;9.09;92.87;99783.75;5116690;28;20173;-68
2022/12/22 06:05:42;;;;;;;7.80;7.50;;;;;;;9.10;92.75;99788.16;5116954;28;20205;-68
2022/12/22 06:08:08;;;;;;;8.00;7.50;;;;;;;9.17;92.58;99789.34;5116622;28;20268;-68
2022/12/22 06:10:35;;;;;;;7.93;7.43;;;;;;;9.12;92.96;99778.16;5117122;28;20182;-68
2022/12/22 06:13:01;;;;;;;10.80;8.10;;;;;;;9.06;93.40;99784.00;5116410;28;20189;-68
2022/12/22 06:15:27;;;;;;;8.27;7.80;;;;;;;9.07;92.92;99783.88;5116643;28;20208;-68
2022/12/22 06:17:54;;;;;;;7.00;6.90;;;;;;;9.03;93.53;99777.09;5116676;28;20195;-68
2022/12/22 06:20:20;;;;;;;7.27;6.83;;;;;;;9.09;93.01;99784.59;5116227;28;20189;-68
2022/12/22 06:22:47;;;;;;;7.77;7.33;;;;;;;9.08;93.35;99780.25;5116374;28;20181;-68
2022/12/22 06:25:13;;;;;;;6.93;6.50;;;;;;;9.08;93.39;99782.91;5116207;28;20209;-68
2022/12/22 06:27:45;;;;;;;6.23;5.83;;;;;;;9.09;93.48;99781.09;5116753;28;20532;-68
2022/12/22 06:30:12;;;;;;;6.67;6.47;;;;;;;9.08;93.17;99787.41;5116189;28;20185;-68
2022/12/22 06:32:39;;;;;;;7.17;6.90;;;;;;;9.06;93.31;99779.50;5116078;28;20181;-68
2022/12/22 06:35:06;;;;;;;7.90;7.50;;;;;;;9.07;93.09;99796.38;5116199;28;20212;-68
2022/12/22 06:37:33;;;;;;;7.50;7.13;;;;;;;9.08;93.62;99795.44;5116050;28;20242;-68
2022/12/22 06:39:59;;;;;;;7.77;7.37;;;;;;;9.06;93.63;99797.38;5116287;28;20242;-68
2022/12/22 06:45:11;;;;;;;8.07;7.77;;;;;;;9.14;92.95;99809.09;5116469;28;20205;-68
2022/12/22 06:47:37;;;;;;;6.60;6.40;;;;;;;9.12;92.98;99805.75;5116185;28;20551;-68
2022/12/22 06:50:04;;;;;;;6.57;6.37;;;;;;;9.20;93.24;99804.28;5115850;28;20189;-68
2022/12/22 06:52:31;;;;;;;8.93;8.07;;;;;;;9.21;93.07;99806.81;5115984;28;20196;-68
2022/12/22 06:54:57;;;;;;;7.27;7.03;;;;;;;9.27;92.99;99810.81;5115509;28;20205;-69
2022/12/22 06:57:23;;;;;;;7.37;6.97;;;;;;;9.26;93.08;99809.09;5115467;28;20272;-68
2022/12/22 06:59:50;;;;;;;7.63;7.37;;;;;;;9.24;93.02;99811.91;5115601;28;20195;-68
2022/12/22 07:02:23;;;;;;;7.93;7.67;;;;;;;9.21;93.31;99820.16;5116166;28;20181;-68
2022/12/22 07:04:49;;;;;;;7.80;7.50;;;;;;;9.20;93.27;99828.31;5116045;28;20303;-68
2022/12/22 07:07:15;;;;;;;8.90;8.40;;;;;;;9.20;93.51;99834.50;5115496;28;20239;-68
2022/12/22 07:09:42;;;;;;;8.87;8.40;;;;;;;9.25;93.14;99837.66;5115404;28;20188;-68
2022/12/22 07:12:08;;;;;;;9.77;8.80;;;;;;;9.25;92.88;99842.16;5115358;28;20189;-68
2022/12/22 07:14:35;;;;;;;8.40;8.00;;;;;;;9.26;92.99;99844.69;5115844;28;20666;-68
2022/12/22 07:17:01;;;;;;;9.10;8.53;;;;;;;9.22;93.12;99843.25;5115794;28;20291;-69
2022/12/22 07:19:27;;;;;;;9.07;8.57;;;;;;;9.22;93.53;99845.91;5115539;28;20549;-69
2022/12/22 07:21:54;;;;;;;8.50;8.17;;;;;;;9.21;93.29;99856.72;5115111;28;20199;-68
2022/12/22 07:24:24;;;;;;;9.60;9.07;;;;;;;9.23;93.16;99862.78;5115187;28;20574;-68
2022/12/22 07:26:51;;;;;;;9.67;8.93;;;;;;;9.19;93.30;99872.00;5115342;28;20212;-69
2022/12/22 07:29:18;;;;;;;11.60;10.63;;;;;;;9.13;93.08;99879.53;5115022;28;20242;-69
2022/12/22 07:31:44;;;;;;;10.83;10.17;;;;;;;9.20;93.17;99889.75;5096961;28;20177;-68
2022/12/22 07:34:11;;;;;;;12.57;11.53;;;;;;;9.20;92.92;99900.44;5114843;28;20250;-68
2022/12/22 07:36:37;;;;;;;12.07;10.73;;;;;;;9.20;93.11;99897.78;5114891;28;20205;-69
2022/12/22 07:39:04;;;;;;;15.20;12.13;;;;;;;9.15;93.28;99896.31;5115128;28;20196;-69
2022/12/22 07:44:15;;;;;;;23.07;14.87;;;;;;;9.16;93.20;99906.00;5114816;28;20169;-68
2022/12/22 07:46:42;;;;;;;26.80;15.67;;;;;;;9.13;93.53;99908.09;5114606;28;20575;-69
2022/12/22 07:51:58;;;;;;;22.93;15.33;;;;;;;9.13;93.54;99924.13;5115191;28;20180;-69
2022/12/22 07:54:25;;;;;;;25.30;15.97;;;;;;;9.13;93.79;99924.13;5114972;28;20654;-68
2022/12/22 07:56:52;;;;;;;28.53;15.87;;;;;;;9.13;93.66;99929.47;5114443;28;20205;-69
2022/12/22 07:59:19;;;;;;;18.67;13.97;;;;;;;9.13;93.29;99932.97;5114450;28;20189;-68
2022/12/22 08:01:45;;;;;;;21.60;14.10;;;;;;;9.12;93.13;99938.44;5114506;28;20213;-70
2022/12/22 08:04:13;;;;;;;20.67;12.23;;;;;;;9.13;93.35;99941.00;5096130;28;20215;-68
2022/12/22 08:06:40;;;;;;;19.00;12.17;;;;;;;9.14;93.50;99941.84;5114516;28;20205;-68
2022/12/22 08:09:08;;;;;;;17.43;12.67;;;;;;;9.09;93.68;99934.19;5095995;28;20189;-68
2022/12/22 08:11:34;;;;;;;18.37;12.23;;;;;;;9.11;93.36;99936.75;5114546;28;20237;-68
2022/12/22 08:14:00;;;;;;;15.47;11.10;;;;;;;9.06;93.46;99942.44;5114164;28;20204;-68
2022/12/22 08:16:27;;;;;;;25.70;11.70;;;;;;;9.06;93.73;99949.59;5114052;28;20296;-68
2022/12/22 08:18:54;;;;;;;17.77;12.03;;;;;;;9.01;93.83;99952.63;5114109;28;20268;-68
2022/12/22 08:21:20;;;;;;;14.93;11.47;;;;;;;9.05;93.75;99958.56;5114084;28;20197;-68
2022/12/22 08:23:47;;;;;;;14.13;11.37;;;;;;;9.02;94.01;99956.16;5114028;28;20264;-68
2022/12/22 08:26:20;;;;;;;24.57;12.10;;;;;;;9.05;93.61;99961.25;5113982;28;20654;-69
2022/12/22 08:28:52;;;;;;;17.17;11.43;;;;;;;9.04;93.76;99968.41;5114270;28;20178;-69
2022/12/22 08:31:20;;;;;;;18.20;11.97;;;;;;;9.01;93.84;99984.69;5113980;28;20170;-68
2022/12/22 08:33:47;;;;;;;18.70;11.33;;;;;;;9.03;93.81;99985.41;5113820;28;20544;-68
2022/12/22 08:36:14;;;;;;;21.97;11.87;;;;;;;8.97;93.86;99999.22;5113838;28;20222;-68
2022/12/22 08:38:41;;;;;;;19.53;10.87;;;;;;;9.02;93.99;100002.41;5113835;28;20192;-68
2022/12/22 08:41:14;;;;;;;20.40;11.87;;;;;;;8.98;93.57;100000.09;5113825;28;20558;-68
2022/12/22 08:43:40;;;;;;;30.00;12.27;;;;;;;8.98;93.93;99997.41;5095422;28;20204;-68
2022/12/22 08:46:07;;;;;;;28.77;12.63;;;;;;;8.96;93.59;100007.38;5113690;28;20605;-68
2022/12/22 08:48:33;;;;;;;30.83;12.30;;;;;;;8.97;93.99;100017.09;5114223;28;20212;-68
2022/12/22 08:50:59;;;;;;;22.33;11.57;;;;;;;9.00;93.79;100024.84;5114201;28;20203;-68
2022/12/22 08:53:26;;;;;;;33.07;13.50;;;;;;;8.98;93.68;100038.34;5113867;28;20184;-69
2022/12/22 08:56:12;;;;;;;31.90;13.53;;;;;;;8.99;93.88;100031.19;5113665;28;20300;-68
2022/12/22 08:58:39;;;;;;;26.13;12.73;;;;;;;8.98;93.70;100042.81;5113646;28;20682;-68
2022/12/22 09:01:05;;;;;;;27.13;12.20;;;;;;;8.98;93.68;100032.13;5113601;28;20735;-68
2022/12/22 09:03:32;;;;;;;33.83;12.93;;;;;;;9.05;93.61;100036.91;5113780;28;20730;-68
2022/12/22 09:06:00;;;;;;;28.07;12.37;;;;;;;9.04;93.32;100040.53;5113685;28;20196;-69
2022/12/22 09:08:26;;;;;;;32.87;13.20;;;;;;;9.05;93.23;100044.03;5113633;28;20701;-69
2022/12/22 09:10:52;;;;;;;36.43;13.70;;;;;;;9.06;93.43;100041.25;5113561;28;20249;-69
2022/12/22 09:13:19;;;;;;;27.13;12.80;;;;;;;9.06;93.60;100043.94;5095633;28;20165;-69
2022/12/22 09:15:45;;;;;;;27.37;13.07;;;;;;;9.12;93.23;100043.47;5113410;28;20712;-69
2022/12/22 09:18:11;;;;;;;26.07;12.90;;;;;;;9.13;93.11;100060.34;5113869;28;20638;-69
2022/12/22 09:20:38;;;;;;;23.43;12.53;;;;;;;9.06;93.32;100051.09;5116223;28;20651;-69
2022/12/22 09:23:04;;;;;;;41.40;14.53;;;;;;;9.10;93.58;100058.78;5117553;28;20544;-69
2022/12/22 09:25:33;;;;;;;39.33;15.50;;;;;;;9.11;93.48;100043.59;5117395;28;20571;-69
2022/12/22 09:28:00;;;;;;;40.60;16.43;;;;;;;9.22;93.45;100042.75;5117347;28;20193;-69
2022/12/22 09:30:26;;;;;;;47.10;17.07;;;;;;;9.27;93.14;100052.13;5117680;28;20534;-69
2022/12/22 09:32:55;;;;;;;32.43;14.43;;;;;;;9.28;93.25;100064.50;5117253;28;20663;-69
2022/12/22 09:35:21;;;;;;;32.87;13.17;;;;;;;9.28;92.83;100075.19;5117661;28;20221;-69
2022/12/22 09:37:48;;;;;;;31.27;14.30;;;;;;;9.36;92.78;100087.97;5117237;28;20195;-69
2022/12/22 09:40:14;;;;;;;24.00;13.87;;;;;;;9.32;93.02;100094.53;5117218;28;20178;-69
2022/12/22 09:42:41;;;;;;;31.00;13.93;;;;;;;9.29;92.60;100102.75;5117160;28;20181;-69
2022/12/22 09:45:18;;;;;;;26.40;13.53;;;;;;;9.23;92.68;100116.59;5117324;28;20687;-69
2022/12/22 09:47:52;;;;;;;29.57;13.93;;;;;;;9.19;92.66;100115.13;5116989;28;20672;-68
2022/12/22 09:50:22;;;;;;;34.90;14.93;;;;;;;9.12;92.54;100126.28;5117579;28;20168;-68
2022/12/22 09:52:53;;;;;;;32.77;15.30;;;;;;;9.06;92.38;100124.06;5117282;28;20169;-68
2022/12/22 09:55:23;;;;;;;33.50;17.57;;;;;;;9.00;92.57;100127.19;5117324;28;20236;-69
2022/12/22 09:57:50;;;;;;;45.27;18.60;;;;;;;9.00;92.62;100137.03;5116912;28;20185;-68
2022/12/22 10:00:19;;;;;;;48.83;20.60;;;;;;;8.96;92.52;100138.25;5117109;28;20224;-68
2022/12/22 10:03:22;;;;;;;31.47;16.00;;;;;;;8.97;92.32;100138.09;5116887;28;20272;-68
2022/12/22 10:06:11;;;;;;;41.70;18.63;;;;;;;8.92;92.42;100154.47;5098646;28;20208;-68
2022/12/22 10:08:39;;;;;;;40.37;18.90;;;;;;;8.94;92.42;100163.22;5116675;28;20219;-69
2022/12/22 10:11:11;;;;;;;40.43;18.73;;;;;;;8.91;92.30;100163.47;5116702;28;20191;-68
2022/12/22 10:13:37;;;;;;;38.70;17.73;;;;;;;8.91;92.90;100167.97;5117089;28;20170;-68
2022/12/22 10:16:26;;;;;;;36.80;18.43;;;;;;;8.87;92.05;100166.47;5116786;28;20281;-68
2022/12/22 10:19:14;;;;;;;34.20;17.17;;;;;;;8.90;92.40;100175.09;5116629;28;20181;-68
2022/12/22 10:21:41;;;;;;;34.37;17.37;;;;;;;8.87;92.36;100172.66;5116412;28;20215;-68
2022/12/22 10:24:28;;;;;;;39.43;19.13;;;;;;;8.88;92.11;100176.19;5116456;28;20170;-68
2022/12/22 10:26:59;;;;;;;35.70;19.27;;;;;;;8.87;92.48;100174.47;5116631;28;20576;-69
2022/12/22 10:29:27;;;;;;;34.77;19.17;;;;;;;8.85;92.87;100187.09;5116542;28;20539;-68
2022/12/22 10:32:01;;;;;;;41.30;19.40;;;;;;;8.85;91.93;100187.94;5115274;28;20647;-68
2022/12/22 10:34:28;;;;;;;41.83;20.43;;;;;;;8.84;92.08;100188.91;5116425;28;20195;-68
2022/12/22 10:36:58;;;;;;;40.13;19.17;;;;;;;8.78;92.25;100189.34;5116066;28;20205;-68
2022/12/22 10:39:29;;;;;;;36.07;18.10;;;;;;;8.77;92.32;100186.81;5116544;28;20203;-68
2022/12/22 10:42:00;;;;;;;38.50;17.77;;;;;;;8.80;91.77;100198.09;5116632;28;20200;-68
2022/12/22 10:44:36;;;;;;;34.30;16.83;;;;;;;8.79;91.41;100192.88;5098342;28;20177;-68
2022/12/22 10:47:18;;;;;;;28.90;15.93;;;;;;;8.75;90.77;100199.41;5098135;28;20213;-69
2022/12/22 10:49:49;;;;;;;26.37;15.20;;;;;;;8.76;90.57;100199.28;5116184;28;20181;-68
2022/12/22 10:52:21;;;;;;;28.67;15.60;;;;;;;8.76;90.67;100188.59;5115861;28;20182;-68
2022/12/22 10:55:14;;;;;;;27.63;15.57;;;;;;;8.87;91.03;100198.50;5115540;28;20193;-69
2022/12/22 10:57:41;;;;;;;30.13;15.97;;;;;;;8.94;91.16;100203.28;5116005;28;20177;-69
2022/12/22 11:00:27;;;;;;;28.23;15.00;;;;;;;8.91;89.79;100205.34;5115689;28;20272;-69
2022/12/22 11:02:57;;;;;;;32.60;16.80;;;;;;;8.88;90.42;100211.75;5115830;28;20205;-68
2022/12/22 11:05:24;;;;;;;28.13;15.90;;;;;;;8.92;90.28;100223.06;5115527;28;20686;-69
2022/12/22 11:07:50;;;;;;;28.30;15.23;;;;;;;9.03;90.23;100219.63;5115777;28;20189;-70
2022/12/22 11:10:25;;;;;;;31.83;14.13;;;;;;;9.05;89.24;100221.22;5097261;28;20196;-69
2022/12/22 11:12:56;;;;;;;33.60;13.03;;;;;;;9.04;88.57;100232.00;5116038;28;20530;-69
2022/12/22 11:15:33;;;;;;;25.77;13.43;;;;;;;9.11;88.34;100239.44;5115187;28;20303;-69
2022/12/22 11:18:09;;;;;;;28.37;13.20;;;;;;;9.13;86.13;100240.19;5115839;28;20182;-68
2022/12/22 11:20:47;;;;;;;26.53;12.90;;;;;;;9.14;85.91;100238.34;5115350;28;20562;-68
2022/12/22 11:23:31;;;;;;;27.77;13.17;;;;;;;9.12;86.05;100242.94;5115378;28;20177;-68
2022/12/22 11:26:09;;;;;;;25.03;13.90;;;;;;;9.07;85.46;100235.28;5115738;28;20663;-69
2022/12/22 11:28:45;;;;;;;22.43;12.07;;;;;;;9.14;86.01;100249.88;5115620;28;20264;-69
2022/12/22 11:31:42;;;;;;;28.60;13.77;;;;;;;9.22;86.69;100260.03;5115024;28;20177;-69
2022/12/22 11:34:47;;;;;;;26.80;13.50;;;;;;;9.20;85.37;100263.78;5114917;28;20190;-69
2022/12/22 11:37:28;;;;;;;27.90;13.07;;;;;;;9.11;84.49;100268.81;5111461;28;20299;-69
2022/12/22 11:40:10;;;;;;;25.03;13.70;;;;;;;8.99;85.15;100275.06;5115386;28;20256;-69
2022/12/22 11:42:56;;;;;;;26.93;13.97;;;;;;;8.92;85.04;100268.47;5114692;28;20177;-69
2022/12/22 11:45:31;;;;;;;20.97;11.87;;;;;;;8.87;84.86;100276.81;5114674;28;20686;-69
2022/12/22 11:48:39;;;;;;;24.23;13.83;;;;;;;8.89;85.75;100285.56;5114679;28;20177;-69
2022/12/22 11:51:29;;;;;;;28.27;13.53;;;;;;;8.86;85.34;100280.44;5115222;28;20178;-69
2022/12/22 11:54:33;;;;;;;27.60;12.33;;;;;;;8.81;84.24;100287.06;5115253;28;20181;-69
2022/12/22 11:57:21;;;;;;;22.03;12.73;;;;;;;8.81;84.17;100284.41;5114401;28;20262;-69
2022/12/22 11:59:59;;;;;;;23.93;12.10;;;;;;;8.80;83.53;100282.69;5114520;28;20194;-69
2022/12/22 12:02:35;;;;;;;21.17;12.03;;;;;;;8.77;84.24;100277.59;5114734;28;20684;-69
2022/12/22 12:05:23;;;;;;;25.67;12.77;;;;;;;8.87;82.97;100287.47;5114847;28;20173;-69
2022/12/22 12:07:56;;;;;;;16.37;12.53;;;;;;;8.92;83.29;100277.31;5114373;28;20176;-69
2022/12/22 12:10:31;;;;;;;17.33;11.17;;;;;;;8.88;82.38;100291.88;5114164;28;20188;-69
2022/12/22 12:13:25;;;;;;;24.23;12.10;;;;;;;8.96;81.38;100290.47;5114392;28;20173;-69
2022/12/22 12:16:33;;;;;;;19.20;12.40;;;;;;;8.92;82.16;100288.00;5114227;28;20633;-69
2022/12/22 12:19:21;;;;;;;23.17;12.87;;;;;;;8.92;83.28;100288.00;5114154;28;20203;-69
2022/12/22 12:22:00;;;;;;;25.90;13.20;;;;;;;8.99;83.17;100287.56;5114010;28;20185;-69
2022/12/22 12:24:58;;;;;;;26.47;12.13;;;;;;;9.12;83.01;100296.38;5114383;28;20182;-69
2022/12/22 12:27:45;;;;;;;23.90;14.60;;;;;;;9.10;82.57;100304.53;5114047;28;20619;-69
2022/12/22 12:30:17;;;;;;;27.13;14.47;;;;;;;9.08;81.57;100302.94;5114223;28;20193;-69
2022/12/22 12:33:15;;;;;;;19.97;12.87;;;;;;;8.98;81.00;100309.88;5113703;28;20192;-69
2022/12/22 12:35:50;;;;;;;34.07;14.47;;;;;;;8.94;81.90;100319.94;5114006;28;20572;-69
2022/12/22 12:38:24;;;;;;;28.70;14.03;;;;;;;9.00;81.47;100311.47;5113824;28;20677;-69
2022/12/22 12:41:22;;;;;;;38.53;14.67;;;;;;;9.07;81.20;100301.22;5114408;28;20184;-69
2022/12/22 12:43:52;;;;;;;28.43;15.20;;;;;;;9.11;82.17;100308.91;5113862;28;20619;-69
2022/12/22 12:46:51;;;;;;;36.13;14.83;;;;;;;9.17;81.77;100310.28;5114064;28;20593;-69
2022/12/22 12:49:33;;;;;;;24.53;14.87;;;;;;;9.24;81.76;100303.53;5113933;28;20779;-69
2022/12/22 12:52:01;;;;;;;28.37;14.90;;;;;;;9.23;80.97;100307.16;5113939;28;20189;-69
2022/12/22 12:54:28;;;;;;;23.90;13.27;;;;;;;9.22;80.10;100308.13;5113464;28;20193;-69
2022/12/22 12:56:59;;;;;;;26.50;12.83;;;;;;;9.23;79.61;100308.97;5113541;28;20205;-69
2022/12/22 12:59:40;;;;;;;17.83;12.20;;;;;;;9.25;78.92;100310.56;5113675;28;20193;-69
2022/12/22 13:02:25;;;;;;;22.57;13.60;;;;;;;9.32;77.48;100308.31;5113551;28;20654;-69
2022/12/22 13:05:14;;;;;;;20.80;12.33;;;;;;;9.36;78.19;100297.28;5114044;28;20201;-69
2022/12/22 13:08:15;;;;;;;16.27;12.63;;;;;;;9.39;77.83;100290.84;5114447;28;20180;-69
2022/12/22 13:10:46;;;;;;;22.37;11.73;;;;;;;9.33;77.83;100286.78;5113484;28;20268;-69
2022/12/22 13:13:21;;;;;;;16.67;11.87;;;;;;;9.34;78.39;100283.19;5114023;28;20188;-69
2022/12/22 13:16:07;;;;;;;15.53;11.63;;;;;;;9.46;78.95;100292.09;5113668;28;20675;-69
2022/12/22 13:18:34;;;;;;;22.33;11.93;;;;;;;9.43;79.32;100289.63;5095328;28;20280;-69
2022/12/22 13:21:07;;;;;;;25.70;11.67;;;;;;;9.44;78.65;100294.03;5113492;28;20197;-69
2022/12/22 13:23:53;;;;;;;17.40;12.17;;;;;;;9.46;79.07;100300.13;5113115;28;20205;-69
2022/12/22 13:26:42;;;;;;;21.97;12.57;;;;;;;9.41;79.43;100288.94;5113471;28;20262;-69
2022/12/22 13:29:20;;;;;;;13.97;11.30;;;;;;;9.45;79.89;100290.38;5113022;28;20272;-69
2022/12/22 13:32:00;;;;;;;22.03;11.67;;;;;;;9.47;79.93;100283.09;5113601;28;20678;-69
2022/12/22 13:34:38;;;;;;;20.80;13.13;;;;;;;9.45;77.41;100298.41;5113496;28;20238;-69
2022/12/22 13:37:26;;;;;;;25.77;14.10;;;;;;;9.39;77.36;100298.88;5112612;28;20250;-69
2022/12/22 13:40:06;;;;;;;18.83;13.70;;;;;;;9.20;78.42;100299.38;5124522;28;20195;-69
2022/12/22 13:42:36;;;;;;;18.63;14.20;;;;;;;9.17;78.73;100307.63;5113631;28;20615;-69
2022/12/22 13:45:05;;;;;;;23.53;14.57;;;;;;;9.21;79.24;100313.56;5113113;28;20676;-69
2022/12/22 13:47:31;;;;;;;30.53;17.43;;;;;;;9.26;77.89;100304.25;5113286;28;20181;-69
2022/12/22 13:49:58;;;;;;;26.70;17.77;;;;;;;9.27;78.45;100300.63;5113573;28;20190;-69
2022/12/22 13:52:35;;;;;;;26.40;16.13;;;;;;;9.23;78.41;100303.63;5113540;28;20166;-69
2022/12/22 13:55:01;;;;;;;24.33;16.27;;;;;;;9.25;79.01;100307.06;5113362;28;20556;-69
2022/12/22 13:57:28;;;;;;;29.40;17.17;;;;;;;9.21;77.58;100311.75;5113189;28;20256;-69
2022/12/22 13:59:54;;;;;;;22.87;16.53;;;;;;;9.06;78.77;100307.53;5113130;28;20643;-69
2022/12/22 14:02:21;;;;;;;26.57;16.83;;;;;;;8.98;78.79;100316.09;5113270;28;20184;-68
2022/12/22 14:05:09;;;;;;;23.27;16.80;;;;;;;8.92;79.88;100320.03;5113562;28;20177;-69
2022/12/22 14:07:36;;;;;;;30.53;17.47;;;;;;;8.92;79.38;100325.38;5116988;28;20184;-69
2022/12/22 14:10:02;;;;;;;30.23;18.57;;;;;;;8.90;79.21;100323.78;5117051;28;20179;-69
2022/12/22 14:12:36;;;;;;;28.33;17.57;;;;;;;8.92;80.01;100330.72;5116921;28;20189;-68
2022/12/22 14:15:07;;;;;;;27.43;18.40;;;;;;;8.88;80.07;100326.59;5116837;28;20257;-69
2022/12/22 14:17:39;;;;;;;33.33;19.10;;;;;;;8.93;79.83;100326.25;5116876;28;20620;-69
2022/12/22 14:20:28;;;;;;;29.10;18.30;;;;;;;8.91;80.35;100315.69;5116598;28;20565;-69
2022/12/22 14:23:04;;;;;;;28.87;17.53;;;;;;;8.92;80.59;100319.19;5116458;28;20370;-69
2022/12/22 14:25:35;;;;;;;29.13;17.17;;;;;;;8.85;80.56;100324.13;5098485;28;20284;-69
2022/12/22 14:28:05;;;;;;;16.07;14.33;;;;;;;8.87;79.55;100326.69;5116909;28;20178;-68
2022/12/22 14:30:35;;;;;;;24.80;13.23;;;;;;;8.87;78.85;100342.72;5116617;28;20587;-69
2022/12/22 14:33:28;;;;;;;19.83;11.70;;;;;;;8.91;78.01;100333.53;5116494;28;20169;-68
2022/12/22 14:36:16;;;;;;;18.10;11.13;;;;;;;8.96;77.86;100344.72;5116183;28;20216;-69
2022/12/22 14:38:46;;;;;;;11.97;9.80;;;;;;;8.94;78.50;100333.31;5116400;28;20180;-68
2022/12/22 14:41:40;;;;;;;11.40;10.33;;;;;;;8.92;77.88;100327.22;5116532;28;20241;-68
2022/12/22 14:44:22;;;;;;;14.23;10.43;;;;;;;8.94;78.42;100333.31;5116542;28;20276;-68
2022/12/22 14:47:19;;;;;;;16.47;10.47;;;;;;;8.96;78.68;100333.19;5116362;28;20296;-69
2022/12/22 14:49:57;;;;;;;11.73;10.57;;;;;;;8.92;79.08;100336.06;5116402;28;20537;-69
2022/12/22 14:52:36;;;;;;;13.67;11.07;;;;;;;8.95;79.12;100345.69;5116393;28;20181;-69
2022/12/22 14:55:05;;;;;;;13.37;10.53;;;;;;;8.98;79.03;100326.78;5115959;28;20230;-69
2022/12/22 14:57:38;;;;;;;13.63;10.83;;;;;;;9.02;78.11;100332.75;5116279;28;20185;-69
2022/12/22 15:00:21;;;;;;;13.40;11.57;;;;;;;8.99;78.68;100325.81;5115970;28;20550;-69
2022/12/22 15:02:51;;;;;;;16.87;11.63;;;;;;;8.94;78.57;100319.94;5115616;28;20181;-69
2022/12/22 15:05:36;;;;;;;14.00;12.07;;;;;;;8.88;79.31;100310.56;5115718;28;20628;-69
2022/12/22 15:08:38;;;;;;;14.57;11.37;;;;;;;8.84;79.50;100305.56;5116083;28;20248;-70
2022/12/22 15:11:20;;;;;;;15.03;12.77;;;;;;;8.80;79.91;100294.22;5116051;28;20207;-69
2022/12/22 15:13:50;;;;;;;26.37;12.33;;;;;;;8.81;80.06;100295.06;5115308;28;20189;-69
2022/12/22 15:16:18;;;;;;;15.27;12.57;;;;;;;8.73;80.56;100296.47;5115219;28;20201;-69
2022/12/22 15:18:46;;;;;;;21.10;12.07;;;;;;;8.67;80.73;100285.41;5114723;28;20204;-69
2022/12/22 15:21:15;;;;;;;13.17;11.53;;;;;;;8.67;80.60;100286.25;5115188;28;20272;-69
2022/12/22 15:23:42;;;;;;;14.40;11.37;;;;;;;8.63;80.88;100284.75;5115254;28;20185;-69
2022/12/22 15:26:09;;;;;;;12.30;11.03;;;;;;;8.68;80.50;100279.09;5115460;28;20296;-69
2022/12/22 15:28:36;;;;;;;13.73;11.93;;;;;;;8.60;81.60;100268.13;5115164;28;20252;-68
2022/12/22 15:31:05;;;;;;;12.27;11.00;;;;;;;8.60;81.64;100271.63;5115064;28;20190;-68
2022/12/22 15:33:32;;;;;;;17.67;11.97;;;;;;;8.57;81.64;100257.63;5114986;28;20185;-68